Hebgen Lake, Montana
Current Conditions -  °F | °C
As of 3:40 PM on Sunday 21 Dec 2014 (Local Time) from KDIJ Reporting Station
Haze Haze  
Wind Chill: 25°   Ceiling: 100
Heat Index: 34°   Visibility: 1mi
Dew Point: 34°   Wind: 13mph
Humidity: 100%   Direction: 330°NNW
Pressure: 29.78"   Gusts: NA
Location:  44.68°N, 111.12°W
Report Text: KDIJ 212240Z AUTO 33011KT 1SM UP BR OVC001 01/01 A2978 RMK AO2 UPB16 P0000
Loading
Personal Weather Stations






























Interactive Weather Map New forecast layout! Learn more

10-Day Weather Forecast

Advertisements
Track Severe Weather on mobile